sensor_id;sensor_type;location;lat;lon;timestamp;pressure;altitude;pressure_sealevel;temperature;humidity
31595;BME280;18200;48.726;8.892;2022-09-19T00:02:59;96749.88;;;18.31;48.10
31595;BME280;18200;48.726;8.892;2022-09-19T00:06:59;96764.41;;;17.70;49.23
31595;BME280;18200;48.726;8.892;2022-09-19T00:11:01;96783.44;;;17.08;51.59
31595;BME280;18200;48.726;8.892;2022-09-19T00:15:01;96783.16;;;17.61;49.79
31595;BME280;18200;48.726;8.892;2022-09-19T00:19:02;96791.34;;;17.98;49.16
31595;BME280;18200;48.726;8.892;2022-09-19T00:23:04;96782.81;;;17.45;50.52
31595;BME280;18200;48.726;8.892;2022-09-19T00:27:24;96782.66;;;17.73;49.90
31595;BME280;18200;48.726;8.892;2022-09-19T00:31:25;96795.16;;;17.60;49.43
31595;BME280;18200;48.726;8.892;2022-09-19T00:35:26;96790.84;;;17.66;49.59
31595;BME280;18200;48.726;8.892;2022-09-19T00:39:27;96784.72;;;18.40;47.90
31595;BME280;18200;48.726;8.892;2022-09-19T00:43:47;96788.78;;;18.25;48.23
31595;BME280;18200;48.726;8.892;2022-09-19T00:47:48;96794.91;;;18.32;47.37
31595;BME280;18200;48.726;8.892;2022-09-19T00:51:51;96810.06;;;18.71;46.06
31595;BME280;18200;48.726;8.892;2022-09-19T00:55:53;96817.19;;;18.95;46.00
31595;BME280;18200;48.726;8.892;2022-09-19T00:59:54;96818.72;;;18.62;46.17
31595;BME280;18200;48.726;8.892;2022-09-19T01:03:55;96815.34;;;18.85;46.23
31595;BME280;18200;48.726;8.892;2022-09-19T01:08:17;96812.88;;;18.97;46.00
31595;BME280;18200;48.726;8.892;2022-09-19T01:12:31;96825.59;;;19.04;45.51
31595;BME280;18200;48.726;8.892;2022-09-19T01:16:39;96821.00;;;19.01;45.23
31595;BME280;18200;48.726;8.892;2022-09-19T01:25:42;96823.97;;;18.80;45.86
31595;BME280;18200;48.726;8.892;2022-09-19T01:29:52;96833.53;;;18.57;45.55
31595;BME280;18200;48.726;8.892;2022-09-19T01:33:56;96841.41;;;18.48;46.33
31595;BME280;18200;48.726;8.892;2022-09-19T01:38:04;96831.72;;;18.03;46.76
31595;BME280;18200;48.726;8.892;2022-09-19T01:42:11;96842.22;;;18.45;46.61
31595;BME280;18200;48.726;8.892;2022-09-19T01:46:22;96835.47;;;18.61;44.96
31595;BME280;18200;48.726;8.892;2022-09-19T01:50:48;96839.88;;;18.47;45.02
31595;BME280;18200;48.726;8.892;2022-09-19T01:55:09;96845.34;;;18.44;45.33
31595;BME280;18200;48.726;8.892;2022-09-19T01:59:19;96848.63;;;18.21;46.14
31595;BME280;18200;48.726;8.892;2022-09-19T02:07:45;96848.97;;;17.79;46.43
31595;BME280;18200;48.726;8.892;2022-09-19T02:11:47;96853.97;;;18.32;45.93
31595;BME280;18200;48.726;8.892;2022-09-19T02:15:50;96854.91;;;18.15;46.47
31595;BME280;18200;48.726;8.892;2022-09-19T02:19:55;96855.69;;;18.15;45.73
31595;BME280;18200;48.726;8.892;2022-09-19T02:23:57;96857.91;;;18.27;45.51
31595;BME280;18200;48.726;8.892;2022-09-19T02:28:07;96858.72;;;18.24;45.08
31595;BME280;18200;48.726;8.892;2022-09-19T02:32:10;96867.34;;;18.12;45.76
31595;BME280;18200;48.726;8.892;2022-09-19T02:44:27;96867.22;;;17.82;45.44
31595;BME280;18200;48.726;8.892;2022-09-19T02:52:46;96870.69;;;17.86;45.63
31595;BME280;18200;48.726;8.892;2022-09-19T02:56:52;96866.78;;;17.91;45.37
31595;BME280;18200;48.726;8.892;2022-09-19T03:00:58;96876.38;;;17.40;46.12
31595;BME280;18200;48.726;8.892;2022-09-19T03:05:09;96883.50;;;17.06;46.85
31595;BME280;18200;48.726;8.892;2022-09-19T03:09:11;96883.66;;;16.39;49.21
31595;BME280;18200;48.726;8.892;2022-09-19T03:13:14;96882.03;;;16.80;47.39
31595;BME280;18200;48.726;8.892;2022-09-19T03:17:15;96880.88;;;17.68;45.91
31595;BME280;18200;48.726;8.892;2022-09-19T03:21:21;96886.66;;;17.77;46.07
31595;BME280;18200;48.726;8.892;2022-09-19T03:25:25;96895.03;;;18.04;45.48
31595;BME280;18200;48.726;8.892;2022-09-19T03:29:28;96901.88;;;18.22;45.12
31595;BME280;18200;48.726;8.892;2022-09-19T03:33:32;96902.00;;;17.39;46.26
31595;BME280;18200;48.726;8.892;2022-09-19T03:37:35;96902.84;;;17.19;47.51
31595;BME280;18200;48.726;8.892;2022-09-19T03:41:35;96908.84;;;16.29;49.90
31595;BME280;18200;48.726;8.892;2022-09-19T03:45:40;96909.13;;;16.98;48.34
31595;BME280;18200;48.726;8.892;2022-09-19T03:49:41;96902.88;;;17.08;48.71
31595;BME280;18200;48.726;8.892;2022-09-19T03:53:42;96908.78;;;15.62;52.13
31595;BME280;18200;48.726;8.892;2022-09-19T03:57:43;96905.19;;;17.20;48.39
31595;BME280;18200;48.726;8.892;2022-09-19T04:01:43;96910.38;;;16.02;51.53
31595;BME280;18200;48.726;8.892;2022-09-19T04:05:44;96915.78;;;16.02;51.27
31595;BME280;18200;48.726;8.892;2022-09-19T04:09:44;96916.84;;;17.06;49.10
31595;BME280;18200;48.726;8.892;2022-09-19T04:13:45;96906.50;;;15.92;51.76
31595;BME280;18200;48.726;8.892;2022-09-19T04:17:50;96916.16;;;16.88;49.54
31595;BME280;18200;48.726;8.892;2022-09-19T04:21:52;96919.28;;;16.62;49.93
31595;BME280;18200;48.726;8.892;2022-09-19T04:26:02;96910.75;;;16.78;49.71
31595;BME280;18200;48.726;8.892;2022-09-19T04:30:22;96919.22;;;17.80;47.24
31595;BME280;18200;48.726;8.892;2022-09-19T04:34:25;96925.44;;;17.81;47.05
31595;BME280;18200;48.726;8.892;2022-09-19T04:38:26;96921.63;;;16.67;49.53
31595;BME280;18200;48.726;8.892;2022-09-19T04:42:31;96925.19;;;17.58;48.38
31595;BME280;18200;48.726;8.892;2022-09-19T04:46:32;96921.59;;;18.33;46.28
31595;BME280;18200;48.726;8.892;2022-09-19T04:50:38;96933.13;;;17.97;46.93
31595;BME280;18200;48.726;8.892;2022-09-19T04:54:39;96936.84;;;18.20;46.45
31595;BME280;18200;48.726;8.892;2022-09-19T04:58:39;96944.66;;;17.39;47.32
31595;BME280;18200;48.726;8.892;2022-09-19T05:02:42;96945.78;;;17.45;48.12
31595;BME280;18200;48.726;8.892;2022-09-19T05:06:42;96953.16;;;17.55;47.80
31595;BME280;18200;48.726;8.892;2022-09-19T05:10:44;96949.47;;;18.48;45.78
31595;BME280;18200;48.726;8.892;2022-09-19T05:14:45;96935.81;;;18.00;46.78
31595;BME280;18200;48.726;8.892;2022-09-19T05:18:47;96949.13;;;17.84;46.79
31595;BME280;18200;48.726;8.892;2022-09-19T05:22:49;96961.03;;;17.25;48.46
31595;BME280;18200;48.726;8.892;2022-09-19T05:26:50;96959.50;;;18.03;47.25
31595;BME280;18200;48.726;8.892;2022-09-19T05:30:51;96967.03;;;17.74;47.25
31595;BME280;18200;48.726;8.892;2022-09-19T05:34:55;96969.03;;;18.25;46.49
31595;BME280;18200;48.726;8.892;2022-09-19T05:39:17;96964.75;;;18.31;46.12
31595;BME280;18200;48.726;8.892;2022-09-19T05:43:36;96972.09;;;17.65;48.00
31595;BME280;18200;48.726;8.892;2022-09-19T05:47:36;96978.22;;;18.49;46.10
31595;BME280;18200;48.726;8.892;2022-09-19T05:51:38;96987.22;;;17.70;47.56
31595;BME280;18200;48.726;8.892;2022-09-19T05:55:43;96979.72;;;18.53;46.40
31595;BME280;18200;48.726;8.892;2022-09-19T06:00:10;96985.22;;;18.43;46.54
31595;BME280;18200;48.726;8.892;2022-09-19T06:04:14;96996.19;;;18.84;46.18
31595;BME280;18200;48.726;8.892;2022-09-19T06:08:16;97001.09;;;18.58;46.53
31595;BME280;18200;48.726;8.892;2022-09-19T06:12:18;97008.22;;;18.86;45.58
31595;BME280;18200;48.726;8.892;2022-09-19T06:16:19;97005.78;;;18.95;45.88
31595;BME280;18200;48.726;8.892;2022-09-19T06:20:46;97017.81;;;18.53;46.67
31595;BME280;18200;48.726;8.892;2022-09-19T06:24:51;97018.66;;;19.32;44.52
31595;BME280;18200;48.726;8.892;2022-09-19T06:28:53;97029.59;;;18.88;45.77
31595;BME280;18200;48.726;8.892;2022-09-19T06:32:54;97024.84;;;19.40;44.75
31595;BME280;18200;48.726;8.892;2022-09-19T06:36:57;97024.31;;;19.85;44.03
31595;BME280;18200;48.726;8.892;2022-09-19T06:40:58;97035.81;;;19.66;45.04
31595;BME280;18200;48.726;8.892;2022-09-19T06:45:16;97035.09;;;19.25;46.74
31595;BME280;18200;48.726;8.892;2022-09-19T06:49:49;97042.13;;;19.19;47.01
31595;BME280;18200;48.726;8.892;2022-09-19T06:54:00;97036.75;;;19.86;45.24
31595;BME280;18200;48.726;8.892;2022-09-19T06:58:01;97044.84;;;19.93;45.05
31595;BME280;18200;48.726;8.892;2022-09-19T07:02:02;97042.56;;;20.19;45.00
31595;BME280;18200;48.726;8.892;2022-09-19T07:06:03;97053.75;;;19.26;46.05
31595;BME280;18200;48.726;8.892;2022-09-19T07:10:09;97062.84;;;18.62;46.86
31595;BME280;18200;48.726;8.892;2022-09-19T07:14:10;97047.47;;;19.33;45.07
31595;BME280;18200;48.726;8.892;2022-09-19T07:18:10;97065.16;;;18.67;47.03
31595;BME280;18200;48.726;8.892;2022-09-19T07:22:13;97066.53;;;18.30;47.52
31595;BME280;18200;48.726;8.892;2022-09-19T07:26:29;97066.88;;;18.36;48.29
31595;BME280;18200;48.726;8.892;2022-09-19T07:30:30;97072.56;;;17.90;48.84
31595;BME280;18200;48.726;8.892;2022-09-19T07:34:30;97080.72;;;17.97;49.23
31595;BME280;18200;48.726;8.892;2022-09-19T07:38:32;97074.41;;;19.24;46.17
31595;BME280;18200;48.726;8.892;2022-09-19T07:42:52;97096.69;;;18.57;48.43
31595;BME280;18200;48.726;8.892;2022-09-19T07:47:20;97092.69;;;18.07;49.05
31595;BME280;18200;48.726;8.892;2022-09-19T07:51:50;97099.72;;;17.94;49.51
31595;BME280;18200;48.726;8.892;2022-09-19T07:55:52;97104.22;;;18.35;48.73
31595;BME280;18200;48.726;8.892;2022-09-19T07:59:53;97106.72;;;18.71;48.64
31595;BME280;18200;48.726;8.892;2022-09-19T08:04:02;97116.44;;;17.99;49.92
31595;BME280;18200;48.726;8.892;2022-09-19T08:08:16;97112.78;;;18.30;48.63
31595;BME280;18200;48.726;8.892;2022-09-19T08:12:17;97118.09;;;18.58;48.81
31595;BME280;18200;48.726;8.892;2022-09-19T08:16:22;97117.47;;;18.26;49.09
31595;BME280;18200;48.726;8.892;2022-09-19T08:20:24;97135.31;;;18.27;48.94
31595;BME280;18200;48.726;8.892;2022-09-19T08:24:24;97127.88;;;19.04;47.31
31595;BME280;18200;48.726;8.892;2022-09-19T08:28:29;97125.47;;;19.13;46.76
31595;BME280;18200;48.726;8.892;2022-09-19T08:32:30;97128.72;;;18.94;46.63
31595;BME280;18200;48.726;8.892;2022-09-19T08:36:33;97128.59;;;18.56;47.77
31595;BME280;18200;48.726;8.892;2022-09-19T08:44:50;97139.22;;;18.26;48.47
31595;BME280;18200;48.726;8.892;2022-09-19T08:48:57;97141.84;;;19.57;46.41
31595;BME280;18200;48.726;8.892;2022-09-19T08:53:02;97137.34;;;19.77;45.63
31595;BME280;18200;48.726;8.892;2022-09-19T08:57:10;97139.75;;;19.72;45.73
31595;BME280;18200;48.726;8.892;2022-09-19T09:01:14;97147.84;;;19.38;46.60
31595;BME280;18200;48.726;8.892;2022-09-19T09:05:47;97147.38;;;19.87;44.69
31595;BME280;18200;48.726;8.892;2022-09-19T09:26:29;97158.81;;;19.75;45.28
31595;BME280;18200;48.726;8.892;2022-09-19T09:30:43;97150.56;;;20.50;43.96
31595;BME280;18200;48.726;8.892;2022-09-19T09:34:47;97154.91;;;20.74;43.19
31595;BME280;18200;48.726;8.892;2022-09-19T09:38:57;97149.66;;;21.13;42.87
31595;BME280;18200;48.726;8.892;2022-09-19T09:43:04;97149.31;;;21.34;42.20
31595;BME280;18200;48.726;8.892;2022-09-19T09:59:53;97158.03;;;20.08;44.23
31595;BME280;18200;48.726;8.892;2022-09-19T10:16:51;97148.91;;;21.59;41.85
31595;BME280;18200;48.726;8.892;2022-09-19T10:20:56;97160.69;;;20.49;43.42
31595;BME280;18200;48.726;8.892;2022-09-19T10:25:08;97156.44;;;20.75;43.10
31595;BME280;18200;48.726;8.892;2022-09-19T10:29:12;97152.88;;;21.08;41.69
31595;BME280;18200;48.726;8.892;2022-09-19T10:33:16;97158.56;;;20.91;42.28
31595;BME280;18200;48.726;8.892;2022-09-19T10:37:27;97151.31;;;21.07;41.83
31595;BME280;18200;48.726;8.892;2022-09-19T10:41:29;97149.91;;;22.31;40.13
31595;BME280;18200;48.726;8.892;2022-09-19T10:49:38;97150.91;;;21.32;40.71
31595;BME280;18200;48.726;8.892;2022-09-19T10:53:43;97154.50;;;22.34;40.31
31595;BME280;18200;48.726;8.892;2022-09-19T10:57:46;97148.53;;;21.80;41.13
31595;BME280;18200;48.726;8.892;2022-09-19T11:02:04;97164.75;;;21.91;41.39
31595;BME280;18200;48.726;8.892;2022-09-19T11:06:16;97155.34;;;22.70;38.55
31595;BME280;18200;48.726;8.892;2022-09-19T11:10:39;97156.69;;;22.42;39.53
31595;BME280;18200;48.726;8.892;2022-09-19T11:14:47;97161.50;;;20.12;44.39
31595;BME280;18200;48.726;8.892;2022-09-19T11:19:12;97171.50;;;22.06;41.42
31595;BME280;18200;48.726;8.892;2022-09-19T11:31:36;97161.69;;;22.28;40.61
31595;BME280;18200;48.726;8.892;2022-09-19T11:36:01;97169.38;;;21.94;41.39
31595;BME280;18200;48.726;8.892;2022-09-19T11:44:14;97158.44;;;21.94;40.14
31595;BME280;18200;48.726;8.892;2022-09-19T11:56:53;97163.06;;;22.36;39.86
31595;BME280;18200;48.726;8.892;2022-09-19T12:05:26;97153.69;;;22.37;39.91
31595;BME280;18200;48.726;8.892;2022-09-19T12:09:31;97154.31;;;22.25;40.70
31595;BME280;18200;48.726;8.892;2022-09-19T12:17:45;97149.59;;;22.45;40.63
31595;BME280;18200;48.726;8.892;2022-09-19T12:22:00;97140.91;;;21.68;40.77
31595;BME280;18200;48.726;8.892;2022-09-19T12:26:07;97144.97;;;22.03;40.62
31595;BME280;18200;48.726;8.892;2022-09-19T12:30:15;97141.59;;;22.15;39.26
31595;BME280;18200;48.726;8.892;2022-09-19T12:34:26;97125.84;;;22.94;37.18
31595;BME280;18200;48.726;8.892;2022-09-19T12:47:25;97125.09;;;24.15;36.13
31595;BME280;18200;48.726;8.892;2022-09-19T12:51:47;97137.94;;;23.45;37.85
31595;BME280;18200;48.726;8.892;2022-09-19T13:00:02;97137.47;;;22.98;38.37
31595;BME280;18200;48.726;8.892;2022-09-19T13:04:13;97128.22;;;22.92;37.47
31595;BME280;18200;48.726;8.892;2022-09-19T13:12:46;97124.72;;;22.91;36.83
31595;BME280;18200;48.726;8.892;2022-09-19T13:16:49;97126.47;;;23.50;36.89
31595;BME280;18200;48.726;8.892;2022-09-19T13:21:14;97109.84;;;23.25;36.89
31595;BME280;18200;48.726;8.892;2022-09-19T13:25:33;97108.66;;;23.99;35.93
31595;BME280;18200;48.726;8.892;2022-09-19T13:33:43;97111.88;;;22.88;37.51
31595;BME280;18200;48.726;8.892;2022-09-19T13:37:52;97108.91;;;23.76;34.97
31595;BME280;18200;48.726;8.892;2022-09-19T13:41:54;97112.44;;;21.89;37.93
31595;BME280;18200;48.726;8.892;2022-09-19T13:45:58;97105.97;;;22.54;37.85
31595;BME280;18200;48.726;8.892;2022-09-19T13:50:10;97088.69;;;25.62;32.31
31595;BME280;18200;48.726;8.892;2022-09-19T13:58:27;97098.41;;;25.88;32.06
31595;BME280;18200;48.726;8.892;2022-09-19T14:02:40;97093.91;;;24.76;33.26
31595;BME280;18200;48.726;8.892;2022-09-19T14:06:41;97101.81;;;23.78;34.95
31595;BME280;18200;48.726;8.892;2022-09-19T14:18:51;97104.19;;;23.32;35.99
31595;BME280;18200;48.726;8.892;2022-09-19T14:22:54;97109.97;;;22.69;36.81
31595;BME280;18200;48.726;8.892;2022-09-19T14:39:39;97106.28;;;24.42;33.02
31595;BME280;18200;48.726;8.892;2022-09-19T14:44:11;97112.47;;;22.44;36.71
31595;BME280;18200;48.726;8.892;2022-09-19T14:48:08;97108.66;;;22.93;36.30
31595;BME280;18200;48.726;8.892;2022-09-19T14:52:13;97098.31;;;23.62;34.44
31595;BME280;18200;48.726;8.892;2022-09-19T14:56:16;97108.53;;;22.97;36.14
31595;BME280;18200;48.726;8.892;2022-09-19T15:00:20;97105.16;;;23.70;35.31
31595;BME280;18200;48.726;8.892;2022-09-19T15:04:22;97117.81;;;22.87;36.94
31595;BME280;18200;48.726;8.892;2022-09-19T15:08:26;97112.75;;;23.17;36.53
31595;BME280;18200;48.726;8.892;2022-09-19T15:12:33;97114.81;;;23.30;36.15
31595;BME280;18200;48.726;8.892;2022-09-19T15:16:35;97114.81;;;23.30;35.81
31595;BME280;18200;48.726;8.892;2022-09-19T15:20:36;97122.81;;;21.97;38.50
31595;BME280;18200;48.726;8.892;2022-09-19T15:24:36;97115.19;;;22.44;38.17
31595;BME280;18200;48.726;8.892;2022-09-19T15:28:37;97118.06;;;23.25;37.28
31595;BME280;18200;48.726;8.892;2022-09-19T15:32:40;97118.56;;;23.03;38.02
31595;BME280;18200;48.726;8.892;2022-09-19T15:36:41;97119.56;;;22.61;38.86
31595;BME280;18200;48.726;8.892;2022-09-19T15:40:42;97107.16;;;23.53;38.70
31595;BME280;18200;48.726;8.892;2022-09-19T15:44:44;97116.50;;;23.56;38.42
31595;BME280;18200;48.726;8.892;2022-09-19T15:48:45;97118.00;;;21.82;40.86
31595;BME280;18200;48.726;8.892;2022-09-19T15:52:46;97114.59;;;22.72;39.93
31595;BME280;18200;48.726;8.892;2022-09-19T15:56:48;97114.59;;;22.72;40.08
31595;BME280;18200;48.726;8.892;2022-09-19T16:00:48;97115.22;;;22.05;41.25
31595;BME280;18200;48.726;8.892;2022-09-19T16:05:00;97100.78;;;24.01;37.44
31595;BME280;18200;48.726;8.892;2022-09-19T16:09:03;97112.59;;;24.14;37.03
31595;BME280;18200;48.726;8.892;2022-09-19T16:21:47;97112.66;;;23.82;39.98
31595;BME280;18200;48.726;8.892;2022-09-19T16:25:51;97117.97;;;23.28;40.35
31595;BME280;18200;48.726;8.892;2022-09-19T16:29:53;97113.78;;;23.40;40.28
31595;BME280;18200;48.726;8.892;2022-09-19T16:33:55;97129.56;;;21.93;41.94
31595;BME280;18200;48.726;8.892;2022-09-19T16:37:57;97131.78;;;22.37;40.35
31595;BME280;18200;48.726;8.892;2022-09-19T16:46:10;97133.50;;;21.45;42.40
31595;BME280;18200;48.726;8.892;2022-09-19T16:50:11;97129.22;;;23.34;38.88
31595;BME280;18200;48.726;8.892;2022-09-19T16:54:12;97140.84;;;23.70;37.67
31595;BME280;18200;48.726;8.892;2022-09-19T16:58:13;97137.75;;;24.13;37.05
31595;BME280;18200;48.726;8.892;2022-09-19T17:06:20;97136.13;;;25.66;34.81
31595;BME280;18200;48.726;8.892;2022-09-19T17:10:21;97143.44;;;24.59;36.18
31595;BME280;18200;48.726;8.892;2022-09-19T17:14:22;97151.66;;;23.61;37.97
31595;BME280;18200;48.726;8.892;2022-09-19T17:18:23;97149.47;;;24.13;37.45
31595;BME280;18200;48.726;8.892;2022-09-19T17:22:24;97156.09;;;23.71;38.99
31595;BME280;18200;48.726;8.892;2022-09-19T17:26:24;97160.34;;;22.91;40.79
31595;BME280;18200;48.726;8.892;2022-09-19T17:30:25;97158.47;;;23.04;40.30
31595;BME280;18200;48.726;8.892;2022-09-19T17:34:25;97161.59;;;22.51;41.94
31595;BME280;18200;48.726;8.892;2022-09-19T17:38:26;97157.44;;;22.82;41.64
31595;BME280;18200;48.726;8.892;2022-09-19T17:42:27;97166.13;;;22.61;41.95
31595;BME280;18200;48.726;8.892;2022-09-19T17:46:27;97158.69;;;22.78;41.17
31595;BME280;18200;48.726;8.892;2022-09-19T17:50:27;97158.50;;;22.49;42.54
31595;BME280;18200;48.726;8.892;2022-09-19T17:54:29;97151.63;;;22.96;41.11
31595;BME280;18200;48.726;8.892;2022-09-19T17:58:29;97161.22;;;22.88;41.75
31595;BME280;18200;48.726;8.892;2022-09-19T18:02:31;97163.84;;;22.76;42.02
31595;BME280;18200;48.726;8.892;2022-09-19T18:06:50;97164.19;;;22.58;42.10
31595;BME280;18200;48.726;8.892;2022-09-19T18:10:50;97166.78;;;22.06;42.62
31595;BME280;18200;48.726;8.892;2022-09-19T18:14:50;97174.81;;;21.97;43.44
31595;BME280;18200;48.726;8.892;2022-09-19T18:18:51;97184.03;;;21.60;43.73
31595;BME280;18200;48.726;8.892;2022-09-19T18:22:51;97184.91;;;22.00;43.78
31595;BME280;18200;48.726;8.892;2022-09-19T18:26:51;97185.78;;;21.94;43.61
31595;BME280;18200;48.726;8.892;2022-09-19T18:30:55;97191.69;;;21.69;44.03
31595;BME280;18200;48.726;8.892;2022-09-19T18:34:55;97197.09;;;21.73;43.22
31595;BME280;18200;48.726;8.892;2022-09-19T18:38:58;97203.06;;;21.44;43.42
31595;BME280;18200;48.726;8.892;2022-09-19T18:42:58;97204.75;;;21.85;43.59
31595;BME280;18200;48.726;8.892;2022-09-19T18:46:59;97198.66;;;21.97;42.98
31595;BME280;18200;48.726;8.892;2022-09-19T18:51:00;97205.09;;;21.87;43.41
31595;BME280;18200;48.726;8.892;2022-09-19T18:55:00;97208.22;;;21.62;43.37
31595;BME280;18200;48.726;8.892;2022-09-19T18:59:00;97210.72;;;21.03;44.97
31595;BME280;18200;48.726;8.892;2022-09-19T19:03:02;97215.50;;;20.92;45.10
31595;BME280;18200;48.726;8.892;2022-09-19T19:07:03;97220.25;;;20.88;45.29
31595;BME280;18200;48.726;8.892;2022-09-19T19:11:08;97216.47;;;20.78;44.51
31595;BME280;18200;48.726;8.892;2022-09-19T19:15:09;97217.66;;;21.08;44.17
31595;BME280;18200;48.726;8.892;2022-09-19T19:19:10;97211.69;;;20.86;44.60
31595;BME280;18200;48.726;8.892;2022-09-19T19:23:11;97211.97;;;20.95;43.91
31595;BME280;18200;48.726;8.892;2022-09-19T19:27:11;97211.50;;;20.70;44.09
31595;BME280;18200;48.726;8.892;2022-09-19T19:31:11;97215.22;;;20.56;44.58
31595;BME280;18200;48.726;8.892;2022-09-19T19:35:11;97223.97;;;20.41;44.95
31595;BME280;18200;48.726;8.892;2022-09-19T19:39:12;97222.19;;;20.61;44.31
31595;BME280;18200;48.726;8.892;2022-09-19T19:43:12;97224.34;;;20.02;44.36
31595;BME280;18200;48.726;8.892;2022-09-19T19:47:12;97220.34;;;20.13;44.53
31595;BME280;18200;48.726;8.892;2022-09-19T19:51:13;97223.72;;;19.91;44.54
31595;BME280;18200;48.726;8.892;2022-09-19T19:55:14;97224.66;;;19.70;44.86
31595;BME280;18200;48.726;8.892;2022-09-19T19:59:14;97216.53;;;20.04;45.33
31595;BME280;18200;48.726;8.892;2022-09-19T20:03:14;97220.91;;;19.54;45.19
31595;BME280;18200;48.726;8.892;2022-09-19T20:07:15;97226.25;;;19.68;45.86
31595;BME280;18200;48.726;8.892;2022-09-19T20:11:15;97219.28;;;19.63;45.70
31595;BME280;18200;48.726;8.892;2022-09-19T20:15:17;97228.47;;;19.80;45.22
31595;BME280;18200;48.726;8.892;2022-09-19T20:19:17;97222.84;;;19.57;45.55
31595;BME280;18200;48.726;8.892;2022-09-19T20:23:19;97223.81;;;19.29;44.45
31595;BME280;18200;48.726;8.892;2022-09-19T20:27:19;97225.03;;;19.21;45.42
31595;BME280;18200;48.726;8.892;2022-09-19T20:31:20;97221.16;;;19.15;45.82
31595;BME280;18200;48.726;8.892;2022-09-19T20:35:21;97226.31;;;19.02;45.80
31595;BME280;18200;48.726;8.892;2022-09-19T20:39:21;97224.91;;;19.42;45.28
31595;BME280;18200;48.726;8.892;2022-09-19T20:43:22;97224.63;;;18.53;45.74
31595;BME280;18200;48.726;8.892;2022-09-19T20:47:22;97222.34;;;18.34;46.32
31595;BME280;18200;48.726;8.892;2022-09-19T20:51:23;97215.31;;;18.47;46.27
31595;BME280;18200;48.726;8.892;2022-09-19T20:55:23;97210.13;;;18.74;45.66
31595;BME280;18200;48.726;8.892;2022-09-19T20:59:24;97208.94;;;18.79;45.45
31595;BME280;18200;48.726;8.892;2022-09-19T21:03:24;97213.72;;;18.61;45.01
31595;BME280;18200;48.726;8.892;2022-09-19T21:07:24;97208.31;;;18.53;46.47
31595;BME280;18200;48.726;8.892;2022-09-19T21:11:25;97214.56;;;18.36;45.98
31595;BME280;18200;48.726;8.892;2022-09-19T21:15:25;97211.03;;;18.43;45.11
31595;BME280;18200;48.726;8.892;2022-09-19T21:19:25;97216.06;;;18.55;45.67
31595;BME280;18200;48.726;8.892;2022-09-19T21:23:26;97210.00;;;18.05;45.36
31595;BME280;18200;48.726;8.892;2022-09-19T21:27:27;97217.03;;;17.81;45.53
31595;BME280;18200;48.726;8.892;2022-09-19T21:31:28;97216.59;;;18.04;46.32
31595;BME280;18200;48.726;8.892;2022-09-19T21:35:29;97222.00;;;18.22;46.15
31595;BME280;18200;48.726;8.892;2022-09-19T21:39:30;97220.81;;;18.26;45.35
31595;BME280;18200;48.726;8.892;2022-09-19T21:43:31;97222.38;;;18.17;45.79
31595;BME280;18200;48.726;8.892;2022-09-19T21:47:31;97232.47;;;18.30;45.61
31595;BME280;18200;48.726;8.892;2022-09-19T21:51:33;97229.41;;;18.14;45.84
31595;BME280;18200;48.726;8.892;2022-09-19T21:55:34;97231.66;;;18.37;45.20
31595;BME280;18200;48.726;8.892;2022-09-19T21:59:34;97230.91;;;18.29;45.02
31595;BME280;18200;48.726;8.892;2022-09-19T22:03:35;97235.88;;;18.55;45.41
31595;BME280;18200;48.726;8.892;2022-09-19T22:07:35;97240.31;;;18.00;45.92
31595;BME280;18200;48.726;8.892;2022-09-19T22:11:35;97242.19;;;18.31;46.01
31595;BME280;18200;48.726;8.892;2022-09-19T22:15:36;97248.03;;;18.26;45.14
31595;BME280;18200;48.726;8.892;2022-09-19T22:19:36;97239.09;;;18.15;45.33
31595;BME280;18200;48.726;8.892;2022-09-19T22:23:37;97241.88;;;17.94;45.36
31595;BME280;18200;48.726;8.892;2022-09-19T22:27:38;97244.16;;;18.20;45.01
31595;BME280;18200;48.726;8.892;2022-09-19T22:31:38;97246.53;;;18.01;45.15
31595;BME280;18200;48.726;8.892;2022-09-19T22:35:42;97239.19;;;17.69;45.78
31595;BME280;18200;48.726;8.892;2022-09-19T22:39:42;97235.66;;;17.83;46.23
31595;BME280;18200;48.726;8.892;2022-09-19T22:43:43;97231.38;;;18.00;45.62
31595;BME280;18200;48.726;8.892;2022-09-19T22:47:43;97236.41;;;18.08;45.36
31595;BME280;18200;48.726;8.892;2022-09-19T22:51:44;97231.75;;;17.98;44.93
31595;BME280;18200;48.726;8.892;2022-09-19T22:55:57;97227.50;;;17.90;44.75
31595;BME280;18200;48.726;8.892;2022-09-19T22:59:58;97241.09;;;17.97;44.69
31595;BME280;18200;48.726;8.892;2022-09-19T23:03:59;97242.28;;;17.93;44.29
31595;BME280;18200;48.726;8.892;2022-09-19T23:08:00;97237.22;;;17.84;44.67
31595;BME280;18200;48.726;8.892;2022-09-19T23:12:00;97236.44;;;17.20;45.35
31595;BME280;18200;48.726;8.892;2022-09-19T23:16:01;97250.41;;;17.36;44.73
31595;BME280;18200;48.726;8.892;2022-09-19T23:20:02;97245.78;;;17.65;45.23
31595;BME280;18200;48.726;8.892;2022-09-19T23:24:02;97242.66;;;17.77;44.84
31595;BME280;18200;48.726;8.892;2022-09-19T23:28:03;97241.91;;;17.80;44.44
31595;BME280;18200;48.726;8.892;2022-09-19T23:32:04;97233.34;;;17.64;43.80
31595;BME280;18200;48.726;8.892;2022-09-19T23:36:06;97236.09;;;17.60;44.13
31595;BME280;18200;48.726;8.892;2022-09-19T23:40:06;97235.53;;;16.70;45.69
31595;BME280;18200;48.726;8.892;2022-09-19T23:44:07;97231.59;;;16.54;46.24
31595;BME280;18200;48.726;8.892;2022-09-19T23:48:07;97225.56;;;17.10;46.09
31595;BME280;18200;48.726;8.892;2022-09-19T23:52:07;97234.09;;;17.26;45.49
31595;BME280;18200;48.726;8.892;2022-09-19T23:56:08;97236.06;;;17.57;44.93
